createdAt,value
2022-10-03T00:01:59.145Z,12.54
2022-10-03T00:04:53.299Z,12.51
2022-10-03T00:07:51.230Z,12.27
2022-10-03T00:10:46.221Z,12.48
2022-10-03T00:13:53.203Z,12.62
2022-10-03T00:16:44.515Z,12.75
2022-10-03T00:19:32.026Z,12.69
2022-10-03T00:22:09.663Z,12.49
2022-10-03T00:24:52.083Z,12.62
2022-10-03T00:27:52.476Z,12.49
2022-10-03T00:30:25.398Z,12.41
2022-10-03T00:32:58.493Z,12.44
2022-10-03T00:35:50.107Z,12.33
2022-10-03T00:38:42.147Z,12.19
2022-10-03T00:41:41.387Z,12.23
2022-10-03T00:44:35.426Z,12.17
2022-10-03T00:47:20.307Z,12.23
2022-10-03T00:49:49.950Z,12.14
2022-10-03T00:53:04.205Z,12.06
2022-10-03T00:55:52.091Z,12.02
2022-10-03T00:58:51.604Z,12.08
2022-10-03T01:01:30.340Z,11.98
2022-10-03T01:04:16.003Z,12.11
2022-10-03T01:07:21.017Z,12.21
2022-10-03T01:10:20.375Z,12.39
2022-10-03T01:12:52.909Z,12.53
2022-10-03T01:15:43.758Z,12.66
2022-10-03T01:18:13.093Z,12.73
2022-10-03T01:21:12.216Z,12.52
2022-10-03T01:24:03.794Z,12.53
2022-10-03T01:27:11.188Z,12.40
2022-10-03T01:30:12.103Z,12.33
2022-10-03T01:32:52.911Z,12.32
2022-10-03T01:35:50.296Z,12.33
2022-10-03T01:38:27.182Z,12.41
2022-10-03T01:41:20.422Z,12.43
2022-10-03T01:44:04.816Z,12.35
2022-10-03T01:46:39.927Z,12.48
2022-10-03T01:49:31.945Z,12.47
2022-10-03T01:52:03.120Z,12.31
2022-10-03T01:54:44.843Z,12.21
2022-10-03T01:57:22.044Z,12.16
2022-10-03T02:00:02.140Z,12.04
2022-10-03T02:03:35.718Z,11.80
2022-10-03T02:06:21.240Z,11.65
2022-10-03T02:08:55.246Z,11.64
2022-10-03T02:11:29.988Z,11.67
2022-10-03T02:14:11.498Z,11.71
2022-10-03T02:16:57.326Z,11.92
2022-10-03T02:20:00.099Z,12.10
2022-10-03T02:22:47.140Z,12.26
2022-10-03T02:25:35.356Z,12.33
2022-10-03T02:28:41.828Z,11.92
2022-10-03T02:31:47.264Z,11.83
2022-10-03T02:34:32.455Z,11.64
2022-10-03T02:37:23.722Z,11.60
2022-10-03T02:40:11.674Z,11.71
2022-10-03T02:42:59.825Z,11.67
2022-10-03T02:46:07.287Z,11.61
2022-10-03T02:48:40.331Z,11.59
2022-10-03T02:51:09.927Z,11.62
2022-10-03T02:54:00.666Z,11.75
2022-10-03T02:56:49.830Z,11.92
2022-10-03T02:59:47.312Z,11.91
2022-10-03T03:02:45.129Z,11.98
2022-10-03T03:05:49.228Z,11.99
2022-10-03T03:08:24.743Z,11.82
2022-10-03T03:11:09.874Z,11.70
2022-10-03T03:14:01.304Z,11.41
2022-10-03T03:16:49.869Z,11.62
2022-10-03T03:19:46.000Z,11.38
2022-10-03T03:22:40.208Z,11.28
2022-10-03T03:25:19.275Z,11.26
2022-10-03T03:28:23.571Z,11.24
2022-10-03T03:31:13.700Z,11.18
2022-10-03T03:34:09.464Z,11.07
2022-10-03T03:36:54.423Z,11.14
2022-10-03T03:39:39.487Z,11.06
2022-10-03T03:42:18.020Z,11.05
2022-10-03T03:45:29.504Z,11.06
2022-10-03T03:48:37.688Z,11.02
2022-10-03T03:51:28.957Z,10.97
2022-10-03T03:54:23.356Z,10.96
2022-10-03T03:56:52.692Z,10.88
2022-10-03T03:59:58.022Z,10.84
2022-10-03T04:02:40.443Z,10.93
2022-10-03T04:05:41.020Z,11.09
2022-10-03T04:08:41.998Z,11.04
2022-10-03T04:11:27.376Z,11.17
2022-10-03T04:14:21.539Z,11.29
2022-10-03T04:17:19.429Z,11.36
2022-10-03T04:20:13.722Z,11.45
2022-10-03T04:22:46.200Z,11.48
2022-10-03T04:25:38.953Z,10.88
2022-10-03T04:28:17.672Z,11.37
2022-10-03T04:31:16.387Z,11.22
2022-10-03T04:34:18.194Z,11.07
2022-10-03T04:37:05.215Z,10.95
2022-10-03T04:39:52.730Z,10.80
2022-10-03T04:42:36.294Z,10.91
2022-10-03T04:45:24.531Z,10.88
2022-10-03T04:47:57.965Z,10.77
2022-10-03T04:50:34.403Z,10.84
2022-10-03T04:53:28.276Z,11.04
2022-10-03T04:56:38.464Z,11.14
2022-10-03T04:59:29.309Z,11.12
2022-10-03T05:02:04.352Z,11.04
2022-10-03T05:04:43.452Z,11.10
2022-10-03T05:07:33.308Z,11.01
2022-10-03T05:10:08.330Z,10.87
2022-10-03T05:12:51.492Z,10.96
2022-10-03T05:15:29.735Z,10.81
2022-10-03T05:18:18.290Z,10.55
2022-10-03T05:20:55.961Z,10.52
2022-10-03T05:23:44.981Z,10.74
2022-10-03T05:26:50.145Z,10.67
2022-10-03T05:29:40.419Z,10.66
2022-10-03T05:32:20.597Z,10.70
2022-10-03T05:34:47.158Z,10.71
2022-10-03T05:37:16.525Z,10.27
2022-10-03T05:39:56.536Z,10.43
2022-10-03T05:42:37.066Z,10.52
2022-10-03T05:45:12.849Z,10.71
2022-10-03T05:48:07.637Z,10.40
2022-10-03T05:51:02.559Z,10.84
2022-10-03T05:53:34.927Z,10.99
2022-10-03T05:56:28.394Z,11.05
2022-10-03T05:59:43.105Z,11.00
2022-10-03T06:02:09.700Z,10.90
2022-10-03T06:04:53.423Z,10.76
2022-10-03T06:07:30.684Z,10.40
2022-10-03T06:10:29.301Z,11.10
2022-10-03T06:12:58.656Z,11.57
2022-10-03T06:15:45.079Z,11.82
2022-10-03T06:18:26.849Z,11.78
2022-10-03T06:21:14.452Z,11.71
2022-10-03T06:24:12.672Z,11.75
2022-10-03T06:27:10.079Z,10.76
2022-10-03T06:29:48.550Z,11.31
2022-10-03T06:32:48.615Z,10.88
2022-10-03T06:35:43.267Z,10.93
2022-10-03T06:38:27.821Z,11.05
2022-10-03T06:41:30.515Z,11.19
2022-10-03T06:44:08.912Z,11.23
2022-10-03T06:46:49.319Z,11.12
2022-10-03T06:49:32.226Z,11.01
2022-10-03T06:52:27.016Z,11.12
2022-10-03T06:55:30.581Z,11.36
2022-10-03T06:58:24.922Z,11.27
2022-10-03T07:01:28.340Z,11.23
2022-10-03T07:04:13.570Z,11.15
2022-10-03T07:07:05.758Z,11.14
2022-10-03T07:10:01.066Z,11.41
2022-10-03T07:12:44.757Z,11.44
2022-10-03T07:15:29.506Z,11.45
2022-10-03T07:18:35.914Z,11.60
2022-10-03T07:21:28.287Z,11.72
2022-10-03T07:24:07.156Z,11.64
2022-10-03T07:26:53.915Z,11.67
2022-10-03T07:29:33.542Z,11.77
2022-10-03T07:32:37.744Z,11.86
2022-10-03T07:35:51.347Z,11.99
2022-10-03T07:38:54.805Z,11.97
2022-10-03T07:41:41.549Z,11.80
2022-10-03T07:44:18.483Z,11.93
2022-10-03T07:47:22.751Z,12.29
2022-10-03T07:49:58.158Z,12.34
2022-10-03T07:52:43.492Z,12.29
2022-10-03T07:55:27.739Z,11.71
2022-10-03T07:57:57.360Z,12.51
2022-10-03T08:00:42.969Z,12.91
2022-10-03T08:03:47.325Z,13.06
2022-10-03T08:06:47.592Z,13.69
2022-10-03T08:09:26.132Z,14.24
2022-10-03T08:12:05.304Z,14.03
2022-10-03T08:14:49.270Z,13.79
2022-10-03T08:17:53.457Z,13.65
2022-10-03T08:20:59.113Z,13.53
2022-10-03T08:23:47.325Z,14.00
2022-10-03T08:26:31.019Z,14.99
2022-10-03T08:29:03.367Z,15.49
2022-10-03T08:32:01.501Z,16.07
2022-10-03T08:34:53.784Z,16.48
2022-10-03T08:37:35.677Z,16.80
2022-10-03T08:40:09.514Z,17.02
2022-10-03T08:42:54.471Z,17.71
2022-10-03T08:45:37.085Z,18.24
2022-10-03T08:48:13.457Z,19.27
2022-10-03T08:50:56.397Z,19.72
2022-10-03T08:53:26.071Z,18.37
2022-10-03T08:56:01.756Z,17.75
2022-10-03T08:58:47.204Z,16.57
2022-10-03T09:01:23.376Z,15.70
2022-10-03T09:04:24.432Z,15.45
2022-10-03T09:07:18.740Z,15.17
2022-10-03T09:09:57.977Z,15.80
2022-10-03T09:12:52.245Z,15.85
2022-10-03T09:15:46.589Z,15.70
2022-10-03T09:18:31.762Z,15.79
2022-10-03T09:21:24.561Z,15.92
2022-10-03T09:24:03.187Z,15.79
2022-10-03T09:26:54.804Z,15.63
2022-10-03T09:29:40.420Z,16.48
2022-10-03T09:32:18.981Z,17.01
2022-10-03T09:35:07.204Z,17.28
2022-10-03T09:37:46.399Z,17.21
2022-10-03T09:40:34.801Z,17.34
2022-10-03T09:43:39.199Z,18.31
2022-10-03T09:46:21.176Z,19.07
2022-10-03T09:49:21.610Z,18.88
2022-10-03T09:52:03.538Z,18.80
2022-10-03T09:55:03.167Z,20.02
2022-10-03T09:57:51.407Z,19.51
2022-10-03T10:00:40.564Z,19.56
2022-10-03T10:03:42.325Z,19.48
2022-10-03T10:06:30.949Z,19.70
2022-10-03T10:09:32.095Z,19.93
2022-10-03T10:12:17.701Z,20.22
2022-10-03T10:15:05.987Z,19.57
2022-10-03T10:17:32.534Z,18.88
2022-10-03T10:20:27.164Z,17.78
2022-10-03T10:23:20.914Z,16.74
2022-10-03T10:25:53.674Z,16.53
2022-10-03T10:28:55.820Z,16.47
2022-10-03T10:31:28.287Z,16.24
2022-10-03T10:34:12.920Z,16.22
2022-10-03T10:37:25.127Z,17.12
2022-10-03T10:40:07.698Z,18.54
2022-10-03T10:43:15.498Z,19.11
2022-10-03T10:45:47.089Z,19.57
2022-10-03T10:48:41.134Z,19.43
2022-10-03T10:51:38.742Z,20.30
2022-10-03T10:54:39.496Z,21.00
2022-10-03T10:57:55.704Z,20.85
2022-10-03T11:00:29.199Z,20.60
2022-10-03T11:03:33.778Z,20.44
2022-10-03T11:06:18.953Z,19.95
2022-10-03T11:09:09.982Z,19.21
2022-10-03T11:11:56.101Z,18.54
2022-10-03T11:15:01.914Z,18.60
2022-10-03T11:17:34.485Z,18.19
2022-10-03T11:20:28.364Z,17.15
2022-10-03T11:23:24.948Z,18.00
2022-10-03T11:26:09.338Z,17.23
2022-10-03T11:29:06.814Z,16.94
2022-10-03T11:31:45.659Z,17.07
2022-10-03T11:34:33.446Z,16.96
2022-10-03T11:37:32.595Z,17.06
2022-10-03T11:40:19.426Z,16.92
2022-10-03T11:43:07.664Z,16.68
2022-10-03T11:45:49.966Z,16.76
2022-10-03T11:48:40.389Z,17.02
2022-10-03T11:51:35.579Z,17.27
2022-10-03T11:54:31.618Z,17.52
2022-10-03T11:57:14.233Z,17.88
2022-10-03T12:00:00.411Z,18.31
2022-10-03T12:02:38.719Z,18.24
2022-10-03T12:05:15.585Z,17.83
2022-10-03T12:08:20.516Z,17.54
2022-10-03T12:10:52.910Z,17.83
2022-10-03T12:13:44.417Z,18.33
2022-10-03T12:16:23.336Z,18.19
2022-10-03T12:18:55.094Z,18.24
2022-10-03T12:22:09.326Z,19.45
2022-10-03T12:24:41.329Z,20.60
2022-10-03T12:27:43.714Z,21.60
2022-10-03T12:30:16.346Z,21.56
2022-10-03T12:33:07.884Z,21.21
2022-10-03T12:35:44.630Z,20.52
2022-10-03T12:38:58.805Z,19.69
2022-10-03T12:41:44.294Z,18.75
2022-10-03T12:44:29.716Z,18.75
2022-10-03T12:47:09.136Z,19.04
2022-10-03T12:49:56.707Z,18.42
2022-10-03T12:52:33.612Z,18.36
2022-10-03T12:55:15.226Z,18.25
2022-10-03T12:57:58.856Z,18.41
2022-10-03T13:00:46.108Z,20.16
2022-10-03T13:03:21.824Z,21.29
2022-10-03T13:06:12.504Z,20.75
2022-10-03T13:09:11.565Z,19.86
2022-10-03T13:11:57.028Z,19.54
2022-10-03T13:14:29.352Z,18.78
2022-10-03T13:17:20.953Z,18.38
2022-10-03T13:20:14.247Z,18.19
2022-10-03T13:22:52.876Z,18.79
2022-10-03T13:25:45.362Z,18.97
2022-10-03T13:28:21.102Z,19.53
2022-10-03T13:31:03.834Z,19.81
2022-10-03T13:33:40.617Z,19.24
2022-10-03T13:36:39.781Z,18.72
2022-10-03T13:39:30.212Z,17.71
2022-10-03T13:42:02.820Z,18.41
2022-10-03T13:44:41.019Z,18.30
2022-10-03T13:47:29.284Z,18.05
2022-10-03T13:50:01.424Z,17.65
2022-10-03T13:52:30.775Z,17.66
2022-10-03T13:55:19.485Z,17.58
2022-10-03T13:58:32.779Z,17.75
2022-10-03T14:01:13.536Z,17.71
2022-10-03T14:04:14.315Z,17.72
2022-10-03T14:06:51.360Z,17.66
2022-10-03T14:09:27.041Z,17.73
2022-10-03T14:12:06.068Z,17.92
2022-10-03T14:14:42.130Z,18.11
2022-10-03T14:17:18.011Z,18.35
2022-10-03T14:19:50.495Z,18.37
2022-10-03T14:22:29.229Z,18.25
2022-10-03T14:25:19.927Z,18.15
2022-10-03T14:28:18.958Z,18.18
2022-10-03T14:31:04.961Z,18.03
2022-10-03T14:33:51.113Z,17.69
2022-10-03T14:36:44.103Z,17.79
2022-10-03T14:39:26.830Z,18.44
2022-10-03T14:41:56.132Z,18.67
2022-10-03T14:44:27.517Z,18.93
2022-10-03T14:47:09.273Z,19.59
2022-10-03T14:49:55.020Z,19.62
2022-10-03T14:52:39.074Z,19.12
2022-10-03T14:55:25.308Z,19.52
2022-10-03T14:58:10.843Z,19.68
2022-10-03T15:00:45.190Z,18.70
2022-10-03T15:03:18.055Z,19.02
2022-10-03T15:06:10.793Z,18.88
2022-10-03T15:08:45.528Z,18.59
2022-10-03T15:11:15.397Z,18.91
2022-10-03T15:13:56.173Z,18.98
2022-10-03T15:16:24.542Z,18.92
2022-10-03T15:19:01.818Z,18.92
2022-10-03T15:21:31.996Z,18.76
2022-10-03T15:24:05.093Z,18.50
2022-10-03T15:26:37.288Z,17.86
2022-10-03T15:29:12.888Z,17.54
2022-10-03T15:31:44.761Z,17.65
2022-10-03T15:34:20.240Z,17.13
2022-10-03T15:36:56.020Z,16.92
2022-10-03T15:39:30.854Z,17.47
2022-10-03T15:42:09.443Z,17.46
2022-10-03T15:44:51.567Z,16.97
2022-10-03T15:47:30.962Z,16.95
2022-10-03T15:50:17.472Z,16.73
2022-10-03T15:52:52.484Z,16.94
2022-10-03T15:55:29.656Z,17.42
2022-10-03T15:58:06.052Z,17.72
2022-10-03T16:00:36.058Z,17.36
2022-10-03T16:03:13.003Z,17.35
2022-10-03T16:06:03.060Z,17.03
2022-10-03T16:08:33.049Z,16.69
2022-10-03T16:11:09.169Z,16.37
2022-10-03T16:13:39.875Z,16.40
2022-10-03T16:16:16.377Z,16.45
2022-10-03T16:18:48.233Z,16.33
2022-10-03T16:21:32.455Z,16.60
2022-10-03T16:24:02.986Z,16.60
2022-10-03T16:26:35.596Z,16.49
2022-10-03T16:29:10.384Z,16.38
2022-10-03T16:31:43.593Z,15.95
2022-10-03T16:34:15.331Z,16.15
2022-10-03T16:36:45.547Z,15.88
2022-10-03T16:39:34.419Z,15.92
2022-10-03T16:42:11.972Z,15.85
2022-10-03T16:44:47.505Z,15.74
2022-10-03T16:47:16.701Z,15.49
2022-10-03T16:50:05.657Z,15.66
2022-10-03T16:52:38.155Z,15.52
2022-10-03T16:55:06.862Z,15.46
2022-10-03T16:57:45.643Z,15.33
2022-10-03T17:00:31.594Z,15.25
2022-10-03T17:02:58.868Z,15.06
2022-10-03T17:05:26.274Z,15.01
2022-10-03T17:08:23.611Z,14.97
2022-10-03T17:10:55.879Z,14.65
2022-10-03T17:13:29.644Z,14.68
2022-10-03T17:16:23.981Z,14.56
2022-10-03T17:19:21.480Z,14.51
2022-10-03T17:21:54.902Z,14.39
2022-10-03T17:24:38.993Z,13.97
2022-10-03T17:27:16.819Z,14.10
2022-10-03T17:29:56.621Z,13.92
2022-10-03T17:32:29.421Z,13.29
2022-10-03T17:35:17.560Z,13.37
2022-10-03T17:38:44.970Z,13.46
2022-10-03T17:41:13.892Z,13.45
2022-10-03T17:43:45.671Z,13.29
2022-10-03T17:46:37.557Z,12.99
2022-10-03T17:49:23.803Z,12.66
2022-10-03T17:51:54.466Z,12.59
2022-10-03T17:54:34.773Z,12.70
2022-10-03T17:57:13.832Z,12.64
2022-10-03T17:59:50.647Z,12.73
2022-10-03T18:02:25.990Z,12.68
2022-10-03T18:05:07.298Z,12.42
2022-10-03T18:07:35.874Z,12.59
2022-10-03T18:10:05.458Z,12.62
2022-10-03T18:12:42.180Z,12.57
2022-10-03T18:15:41.244Z,12.56
2022-10-03T18:18:23.150Z,12.55
2022-10-03T18:20:59.429Z,12.43
2022-10-03T18:23:55.151Z,12.26
2022-10-03T18:26:30.073Z,12.31
2022-10-03T18:29:33.017Z,12.26
2022-10-03T18:32:22.550Z,12.16
2022-10-03T18:35:03.476Z,11.98
2022-10-03T18:37:30.083Z,11.98
2022-10-03T18:39:59.480Z,11.73
2022-10-03T18:42:28.142Z,11.68
2022-10-03T18:44:57.739Z,11.41
2022-10-03T18:47:36.213Z,11.58
2022-10-03T18:50:09.068Z,11.53
2022-10-03T18:52:54.108Z,11.42
2022-10-03T18:55:31.175Z,11.46
2022-10-03T18:58:21.232Z,11.34
2022-10-03T19:00:50.769Z,11.26
2022-10-03T19:03:22.076Z,11.23
2022-10-03T19:06:02.816Z,11.21
2022-10-03T19:08:48.854Z,11.18
2022-10-03T19:11:21.369Z,11.11
2022-10-03T19:14:03.286Z,10.92
2022-10-03T19:16:49.813Z,10.93
2022-10-03T19:19:55.398Z,10.53
2022-10-03T19:22:32.199Z,10.92
2022-10-03T19:25:02.895Z,10.84
2022-10-03T19:27:49.574Z,10.69
2022-10-03T19:30:22.809Z,10.19
2022-10-03T19:32:59.124Z,10.43
2022-10-03T19:35:28.410Z,10.21
2022-10-03T19:38:17.044Z,10.51
2022-10-03T19:40:53.972Z,10.56
2022-10-03T19:43:42.092Z,10.54
2022-10-03T19:46:40.817Z,10.30
2022-10-03T19:49:41.676Z,10.18
2022-10-03T19:52:30.271Z,10.09
2022-10-03T19:55:02.896Z,10.14
2022-10-03T19:57:42.442Z,10.09
2022-10-03T20:00:15.181Z,10.07
2022-10-03T20:02:44.705Z,10.05
2022-10-03T20:05:20.675Z,10.05
2022-10-03T20:07:56.966Z,10.02
2022-10-03T20:10:54.465Z,9.96
2022-10-03T20:13:21.354Z,9.84
2022-10-03T20:15:50.734Z,9.64
2022-10-03T20:18:33.408Z,9.93
2022-10-03T20:21:02.948Z,9.80
2022-10-03T20:23:32.644Z,9.99
2022-10-03T20:26:04.869Z,10.02
2022-10-03T20:28:49.978Z,9.99
2022-10-03T20:31:25.257Z,9.92
2022-10-03T20:33:54.309Z,9.84
2022-10-03T20:36:35.134Z,9.81
2022-10-03T20:39:18.377Z,9.76
2022-10-03T20:42:01.961Z,9.70
2022-10-03T20:44:56.785Z,9.71
2022-10-03T20:47:33.114Z,9.72
2022-10-03T20:50:25.804Z,9.67
2022-10-03T20:52:56.423Z,9.24
2022-10-03T20:55:27.986Z,9.36
2022-10-03T20:58:02.018Z,9.43
2022-10-03T21:00:30.179Z,9.35
2022-10-03T21:03:01.222Z,9.35
2022-10-03T21:05:39.280Z,9.35
2022-10-03T21:08:38.128Z,9.27
2022-10-03T21:11:18.983Z,9.27
2022-10-03T21:13:52.264Z,9.21
2022-10-03T21:16:29.528Z,9.12
2022-10-03T21:19:00.744Z,8.98
2022-10-03T21:21:43.059Z,9.02
2022-10-03T21:24:45.689Z,8.78
2022-10-03T21:27:16.793Z,8.65
2022-10-03T21:29:54.425Z,8.68
2022-10-03T21:32:49.024Z,8.64
2022-10-03T21:35:37.446Z,8.63
2022-10-03T21:38:09.839Z,8.67
2022-10-03T21:40:51.340Z,8.71
2022-10-03T21:43:34.488Z,8.67
2022-10-03T21:46:22.858Z,8.59
2022-10-03T21:49:08.106Z,8.58
2022-10-03T21:51:44.548Z,8.60
2022-10-03T21:54:29.814Z,8.61
2022-10-03T21:57:12.489Z,8.54
2022-10-03T21:59:48.364Z,8.62
2022-10-03T22:02:52.601Z,8.67
2022-10-03T22:05:43.135Z,8.64
2022-10-03T22:08:22.949Z,8.60
2022-10-03T22:11:14.007Z,8.59
2022-10-03T22:13:46.462Z,8.47
2022-10-03T22:16:15.989Z,8.55
2022-10-03T22:19:05.987Z,8.44
2022-10-03T22:21:45.276Z,8.51
2022-10-03T22:24:41.871Z,8.59
2022-10-03T22:27:53.962Z,8.56
2022-10-03T22:30:21.847Z,8.52
2022-10-03T22:33:03.507Z,8.49
2022-10-03T22:35:38.875Z,8.48
2022-10-03T22:38:07.132Z,8.40
2022-10-03T22:40:34.833Z,8.41
2022-10-03T22:43:05.303Z,8.25
2022-10-03T22:45:37.847Z,8.30
2022-10-03T22:48:11.646Z,8.14
2022-10-03T22:50:41.747Z,8.22
2022-10-03T22:53:13.972Z,8.00
2022-10-03T22:55:46.852Z,8.14
2022-10-03T22:58:14.553Z,8.10
2022-10-03T23:00:43.056Z,7.93
2022-10-03T23:03:34.082Z,8.04
2022-10-03T23:06:27.094Z,8.02
2022-10-03T23:08:53.610Z,7.97
2022-10-03T23:11:24.374Z,7.94
2022-10-03T23:13:51.411Z,7.56
2022-10-03T23:16:51.780Z,7.83
2022-10-03T23:19:29.239Z,7.62
2022-10-03T23:21:58.415Z,7.14
2022-10-03T23:24:24.953Z,7.75
2022-10-03T23:27:16.465Z,7.71
2022-10-03T23:29:43.137Z,7.64
2022-10-03T23:32:10.772Z,7.64
2022-10-03T23:34:37.346Z,7.64
2022-10-03T23:37:22.785Z,7.61
2022-10-03T23:39:55.461Z,7.68
2022-10-03T23:42:31.281Z,7.73
2022-10-03T23:45:07.322Z,7.69
2022-10-03T23:47:41.129Z,7.70
2022-10-03T23:50:09.558Z,7.68
2022-10-03T23:52:47.400Z,7.75
2022-10-03T23:55:21.438Z,7.78
2022-10-03T23:57:48.283Z,7.42
